Time;durP1;ratioP1;P1;durP2;ratioP2;P2;SDS_P1;SDS_P2;PMS_P1;PMS_P2;Temp;Humidity;BMP_temperature;BMP_pressure;BME280_temperature;BME280_humidity;BME280_pressure;Samples;Min_cycle;Max_cycle;Signal;HPM_P1;HPM_P2
2022/01/10 00:02:04;;;;;;;;;;;;;;;;;;;;;
2022/01/10 00:05:54;;;;;;;71.30;31.30;;;;;;;-4.59;98.05;99583.02;104370;1280;72934;-70
2022/01/10 00:10:02;;;;;;;77.50;34.40;;;;;;;-4.60;97.76;99585.65;104016;1287;59738;-68
2022/01/10 00:22:33;;;;;;;72.50;31.00;;;;;;;-4.60;97.40;99604.52;103942;1284;66182;-68
2022/01/10 00:25:56;;;;;;;71.60;30.50;;;;;;;-4.57;97.10;99609.83;104405;1281;73586;-68
2022/01/10 00:29:15;;;;;;;64.90;27.20;;;;;;;-4.57;96.76;99608.96;104507;1282;60282;-68
2022/01/10 00:32:48;;;;;;;63.40;28.20;;;;;;;-4.58;96.48;99615.56;104599;1281;59721;-68
2022/01/10 00:40:48;;;;;;;59.60;25.10;;;;;;;-4.67;96.45;99644.15;104872;1271;66744;-68
2022/01/10 00:48:18;;;;;;;77.90;30.00;;;;;;;-4.78;96.24;99659.44;105444;1271;60545;-68
2022/01/10 00:52:04;;;;;;;76.40;31.50;;;;;;;-4.83;96.05;99660.25;105388;1271;60195;-69
2022/01/10 00:55:30;;;;;;;78.60;32.50;;;;;;;-4.85;96.32;99669.80;105410;1273;73306;-68
2022/01/10 01:04:35;;;;;;;73.30;30.00;;;;;;;-4.84;96.40;99688.99;105090;1271;72136;-68
2022/01/10 01:08:05;;;;;;;;;;;;;;;;;;;;;
2022/01/10 01:12:07;;;;;;;61.50;26.30;;;;;;;-4.84;95.81;99712.36;105441;1271;59659;-68
2022/01/10 01:15:55;;;;;;;;;;;;;;;;;;;;;
2022/01/10 01:24:06;;;;;;;62.80;25.00;;;;;;;-5.08;95.25;99740.19;105251;1273;73194;-68
2022/01/10 01:27:18;;;;;;;75.70;28.80;;;;;;;-5.16;95.08;99742.05;105412;1274;59765;-68
2022/01/10 01:30:42;;;;;;;85.30;34.40;;;;;;;-5.23;95.04;99743.41;105241;1274;60388;-68
2022/01/10 01:39:04;;;;;;;;;;;;;;;;;;;;;
2022/01/10 01:42:30;;;;;;;85.00;33.80;;;;;;;-5.38;95.43;99754.55;105337;1271;73066;-69
2022/01/10 01:49:58;;;;;;;77.30;32.00;;;;;;;-5.34;96.15;99754.48;105240;1271;60341;-68
2022/01/10 01:53:27;;;;;;;67.70;26.60;;;;;;;-5.31;95.93;99750.80;105258;1271;72797;-68
2022/01/10 01:57:05;;;;;;;63.40;27.00;;;;;;;-5.30;96.18;99765.48;105196;1271;68029;-68
2022/01/10 02:00:11;;;;;;;58.30;25.60;;;;;;;-5.31;95.99;99786.09;104998;1271;72765;-68
2022/01/10 02:03:33;;;;;;;58.20;24.90;;;;;;;-5.33;95.94;99794.43;105531;1271;59765;-68
2022/01/10 02:07:00;;;;;;;64.70;26.20;;;;;;;-5.39;95.56;99785.36;104944;1271;59559;-68
2022/01/10 02:10:15;;;;;;;92.50;37.80;;;;;;;-5.41;96.30;99790.04;105409;1274;72275;-68
2022/01/10 02:13:54;;;;;;;90.40;37.70;;;;;;;-5.41;96.38;99797.32;105188;1271;67193;-68
2022/01/10 02:18:03;;;;;;;76.70;33.00;;;;;;;-5.37;96.28;99800.38;104827;1274;72050;-68
2022/01/10 02:22:01;;;;;;;72.80;30.00;;;;;;;-5.32;96.58;99810.14;104211;1279;60316;-68
2022/01/10 02:26:21;;;;;;;62.30;26.80;;;;;;;-5.31;96.29;99823.09;104764;1279;59840;-68
2022/01/10 02:29:37;;;;;;;62.50;26.00;;;;;;;-5.32;95.81;99825.19;104635;1279;73422;-69
2022/01/10 02:32:57;;;;;;;65.60;27.90;;;;;;;-5.35;95.70;99832.67;104459;1280;68208;-68
2022/01/10 02:36:22;;;;;;;69.30;27.70;;;;;;;-5.40;95.17;99831.38;103877;1279;1003009;-68
2022/01/10 02:40:02;;;;;;;69.10;29.90;;;;;;;-5.48;95.02;99835.81;104077;1279;1002931;-68
2022/01/10 02:43:39;;;;;;;85.60;35.40;;;;;;;-5.56;95.13;99835.61;104625;1279;62959;-68
2022/01/10 02:47:15;;;;;;;85.80;36.70;;;;;;;-5.61;94.92;99838.27;104771;1279;73473;-67
2022/01/10 02:50:16;;;;;;;80.50;34.10;;;;;;;-5.64;94.84;99854.73;104626;1279;66801;-68
2022/01/10 02:53:59;;;;;;;81.20;33.00;;;;;;;-5.66;95.53;99862.54;104754;1280;72958;-68
2022/01/10 02:57:15;;;;;;;84.00;33.80;;;;;;;-5.66;94.99;99872.74;104836;1274;59853;-68
2022/01/10 03:00:55;;;;;;;67.50;27.50;;;;;;;-5.69;94.69;99874.33;106488;1273;60330;-68
2022/01/10 03:04:04;;;;;;;69.40;28.00;;;;;;;-5.69;95.28;99883.67;105068;1271;73302;-68
2022/01/10 03:07:27;;;;;;;68.10;28.60;;;;;;;-5.72;95.11;99884.58;105106;1274;66898;-68
2022/01/10 03:10:52;;;;;;;59.80;24.00;;;;;;;-5.74;94.89;99892.22;104887;1271;71681;-68
2022/01/10 03:14:19;;;;;;;62.20;26.50;;;;;;;-5.80;94.92;99901.64;105447;1271;59649;-68
2022/01/10 03:17:29;;;;;;;67.80;28.30;;;;;;;-5.88;94.72;99904.85;105560;1271;59554;-69
2022/01/10 03:20:55;;;;;;;78.30;33.70;;;;;;;-5.94;95.01;99906.48;105272;1271;73203;-68
2022/01/10 03:24:43;;;;;;;75.10;32.90;;;;;;;-5.98;94.85;99916.41;104179;1271;1003052;-68
2022/01/10 03:33:50;;;;;;;;;;;;;;;;;;;;;
2022/01/10 03:38:06;;;;;;;64.40;27.40;;;;;;;-5.92;95.14;99955.88;105318;1271;59587;-68
2022/01/10 03:41:31;;;;;;;65.20;27.30;;;;;;;-5.96;94.83;99959.20;105802;1271;73015;-68
2022/01/10 03:44:45;;;;;;;65.80;27.90;;;;;;;-5.96;95.29;99965.08;105063;1271;67965;-69
2022/01/10 03:47:51;;;;;;;86.00;31.30;;;;;;;-5.98;95.04;99972.73;105177;1271;71791;-68
2022/01/10 03:50:56;;;;;;;170.30;47.20;;;;;;;-6.02;94.73;99979.86;104868;1271;59672;-68
2022/01/10 03:54:46;;;;;;;235.90;64.70;;;;;;;-6.05;94.54;99992.86;105199;1271;60300;-68
2022/01/10 03:57:51;;;;;;;187.50;54.40;;;;;;;-6.10;94.42;100000.50;105323;1274;73342;-67
2022/01/10 04:01:30;;;;;;;281.90;74.40;;;;;;;-6.11;95.00;100001.04;105318;1271;68279;-67
2022/01/10 04:05:02;;;;;;;239.30;64.90;;;;;;;-6.12;95.01;100007.09;104598;1271;1003654;-68
2022/01/10 04:08:16;;;;;;;231.10;62.30;;;;;;;-6.10;95.08;100015.53;105188;1271;59550;-68
2022/01/10 04:11:19;;;;;;;209.00;56.40;;;;;;;-6.08;95.25;100016.03;105216;1271;59656;-67
2022/01/10 04:14:20;;;;;;;192.40;56.30;;;;;;;-6.08;94.83;100024.15;105336;1271;73575;-68
2022/01/10 04:17:45;;;;;;;196.60;55.10;;;;;;;-6.06;95.03;100031.56;105491;1271;66924;-67
2022/01/10 04:21:33;;;;;;;196.70;57.10;;;;;;;-6.08;94.30;100034.35;104503;1271;1003902;-67
2022/01/10 04:29:07;;;;;;;175.20;50.80;;;;;;;-6.20;93.87;100043.79;104996;1277;60574;-68
2022/01/10 04:32:14;;;;;;;161.30;50.70;;;;;;;-6.26;94.21;100050.58;104470;1277;73668;-67
2022/01/10 04:35:25;;;;;;;156.30;50.40;;;;;;;-6.30;94.47;100056.15;104088;1276;1003400;-68
2022/01/10 04:42:34;;;;;;;123.10;40.90;;;;;;;-6.36;94.45;100076.23;104738;1277;59804;-68
2022/01/10 04:45:38;;;;;;;109.30;38.80;;;;;;;-6.37;94.27;100092.98;104778;1277;60440;-68
2022/01/10 04:49:03;;;;;;;98.70;35.30;;;;;;;-6.39;93.89;100102.85;105134;1277;73226;-67
2022/01/10 04:52:32;;;;;;;74.40;29.60;;;;;;;-6.40;93.90;100104.58;104204;1277;1003379;-68
2022/01/10 04:55:56;;;;;;;75.60;30.30;;;;;;;-6.38;94.19;100111.48;104363;1277;73047;-67
2022/01/10 05:00:04;;;;;;;74.30;28.20;;;;;;;-6.38;94.40;100116.30;104782;1273;59545;-67
2022/01/10 05:03:10;;;;;;;79.80;29.60;;;;;;;-6.40;94.17;100121.16;106819;1271;60726;-68
2022/01/10 05:06:27;;;;;;;81.50;33.10;;;;;;;-6.41;94.41;100119.09;105283;1273;72077;-67
2022/01/10 05:09:26;;;;;;;90.50;36.20;;;;;;;-6.41;94.57;100127.73;105171;1273;68058;-68
2022/01/10 05:12:54;;;;;;;83.20;35.20;;;;;;;-6.38;95.23;100127.70;104656;1271;1002957;-68
2022/01/10 05:20:51;;;;;;;84.80;34.20;;;;;;;-6.27;96.06;100138.85;105077;1271;60608;-68
2022/01/10 05:24:23;;;;;;;79.30;31.20;;;;;;;-6.22;95.99;100141.21;105435;1273;72018;-68
2022/01/10 05:27:44;;;;;;;74.30;31.30;;;;;;;-6.16;95.90;100151.20;105004;1277;65911;-68
2022/01/10 05:30:51;;;;;;;82.30;31.70;;;;;;;-6.11;95.60;100162.39;104918;1277;71663;-67
2022/01/10 05:34:25;;;;;;;94.60;31.50;;;;;;;-6.08;95.28;100170.48;104415;1276;1003189;-67
2022/01/10 05:38:09;;;;;;;110.60;34.00;;;;;;;-6.08;94.89;100179.46;105240;1276;60754;-67
2022/01/10 05:42:00;;;;;;;;;;;;;;;;;;;;;
2022/01/10 05:45:24;;;;;;;99.30;32.30;;;;;;;-6.09;94.14;100184.48;105050;1276;68278;-67
2022/01/10 05:49:34;;;;;;;100.90;35.20;;;;;;;-6.10;94.29;100189.84;105389;1276;72802;-68
2022/01/10 05:52:50;;;;;;;106.10;39.00;;;;;;;-6.12;93.98;100201.08;104885;1277;59877;-68
2022/01/10 05:56:17;;;;;;;90.80;35.60;;;;;;;-6.11;93.73;100206.95;104466;1277;1003706;-67
2022/01/10 06:00:02;;;;;;;88.20;34.40;;;;;;;-6.08;94.09;100213.15;104927;1275;73522;-68
2022/01/10 06:03:43;;;;;;;81.30;31.90;;;;;;;-6.01;94.48;100223.13;104925;1271;66795;-67
2022/01/10 06:06:48;;;;;;;84.60;31.60;;;;;;;-5.94;95.00;100235.31;105241;1271;70562;-67
2022/01/10 06:10:21;;;;;;;96.20;33.90;;;;;;;-5.90;94.79;100242.18;105234;1271;59765;-67
2022/01/10 06:13:51;;;;;;;88.70;31.60;;;;;;;-5.86;94.70;100247.87;105557;1272;59551;-67
2022/01/10 06:17:23;;;;;;;90.80;32.30;;;;;;;-5.87;94.48;100259.63;105413;1273;73370;-68
2022/01/10 06:20:31;;;;;;;98.60;32.10;;;;;;;-5.90;94.00;100273.98;101582;1272;5619301;-68
2022/01/10 06:24:11;;;;;;;102.50;33.00;;;;;;;-5.96;93.57;100278.88;105351;1272;73573;-67
2022/01/10 06:29:37;;;;;;;;;;;;;;;;;;;;;
2022/01/10 06:42:34;;;;;;;98.00;35.20;;;;;;;-6.21;93.98;100319.99;103721;1287;66657;-67
2022/01/10 06:51:59;;;;;;;81.50;32.40;;;;;;;-6.15;94.35;100338.98;102832;1294;1003470;-68
2022/01/10 06:55:55;;;;;;;76.90;30.20;;;;;;;-6.10;94.60;100353.45;102732;1300;60619;-68
2022/01/10 07:00:07;;;;;;;71.90;29.10;;;;;;;-6.08;94.24;100356.90;102952;1299;72087;-67
2022/01/10 07:04:11;;;;;;;71.50;27.60;;;;;;;-6.10;94.07;100362.78;102167;1297;1004982;-67
2022/01/10 07:17:00;;;;;;;100.70;39.70;;;;;;;-6.16;94.17;100386.30;104160;1284;60721;-67
2022/01/10 07:20:11;;;;;;;67.50;27.80;;;;;;;-6.09;94.44;100389.89;104545;1280;73779;-69
2022/01/10 07:24:01;;;;;;;68.50;27.40;;;;;;;-6.01;94.84;100393.15;105114;1280;66813;-68
2022/01/10 07:27:59;;;;;;;;;;;;;;;;;;;;;
2022/01/10 07:31:51;;;;;;;64.10;24.60;;;;;;;-5.84;94.25;100412.23;104531;1273;59656;-67
2022/01/10 07:34:55;;;;;;;67.40;27.30;;;;;;;-5.82;94.05;100418.77;105416;1271;59714;-68
2022/01/10 07:37:53;;;;;;;66.80;28.10;;;;;;;-5.80;93.87;100425.35;105056;1271;74380;-69
2022/01/10 07:40:52;;;;;;;81.60;33.30;;;;;;;-5.77;93.40;100431.20;105071;1271;68020;-68
2022/01/10 07:43:45;;;;;;;99.40;38.30;;;;;;;-5.74;93.75;100433.77;105450;1271;73150;-67
2022/01/10 07:47:07;;;;;;;76.00;32.20;;;;;;;-5.69;93.81;100437.03;105314;1271;59640;-69
2022/01/10 07:50:10;;;;;;;69.60;28.50;;;;;;;-5.57;93.70;100444.06;105389;1271;59620;-67
2022/01/10 07:53:39;;;;;;;68.40;28.80;;;;;;;-5.46;93.94;100450.40;105599;1271;70967;-68
2022/01/10 07:56:40;;;;;;;66.10;27.20;;;;;;;-5.37;93.54;100458.98;105372;1271;66085;-68
2022/01/10 08:00:24;;;;;;;75.60;29.30;;;;;;;-5.30;93.19;100461.38;105108;1271;74174;-68
2022/01/10 08:03:28;;;;;;;67.90;28.60;;;;;;;-5.24;92.93;100472.75;104438;1271;1003724;-68
2022/01/10 08:06:31;;;;;;;69.80;28.70;;;;;;;-5.18;92.71;100475.48;105084;1271;59301;-68
2022/01/10 08:09:19;;;;;;;84.80;32.80;;;;;;;-5.15;92.78;100475.98;105147;1274;72324;-69
2022/01/10 08:12:09;;;;;;;92.90;37.40;;;;;;;-5.08;92.57;100484.42;104982;1271;67644;-67
2022/01/10 08:14:58;;;;;;;95.10;36.90;;;;;;;-5.01;92.90;100484.20;105040;1271;71776;-67
2022/01/10 08:18:27;;;;;;;85.30;35.60;;;;;;;-4.89;92.65;100494.50;105063;1271;59642;-67
2022/01/10 08:25:21;;;;;;;88.00;33.50;;;;;;;-4.55;93.08;100503.56;105099;1271;73408;-67
2022/01/10 08:28:09;;;;;;;81.30;33.50;;;;;;;-4.38;93.07;100509.65;105009;1274;68041;-69
2022/01/10 08:30:57;;;;;;;94.20;38.00;;;;;;;-4.12;92.80;100516.34;105230;1271;72767;-68
2022/01/10 08:33:52;;;;;;;84.80;37.00;;;;;;;-3.38;92.91;100523.45;105187;1272;59706;-68
2022/01/10 08:37:42;;;;;;;97.80;40.50;;;;;;;-1.39;94.66;100523.73;105266;1271;59679;-69
2022/01/10 08:40:44;;;;;;;91.50;38.80;;;;;;;0.86;89.68;100521.48;105571;1271;73735;-70
2022/01/10 08:44:20;;;;;;;97.20;42.90;;;;;;;2.36;85.62;100518.84;105338;1274;66920;-69
2022/01/10 08:48:29;;;;;;;98.60;42.70;;;;;;;4.22;77.56;100517.73;105228;1271;74144;-69
2022/01/10 08:51:35;;;;;;;110.50;47.60;;;;;;;5.71;69.00;100525.38;105140;1271;59681;-69
2022/01/10 08:54:31;;;;;;;102.20;44.90;;;;;;;6.68;66.25;100527.07;105139;1271;61251;-69
2022/01/10 08:57:29;;;;;;;107.60;45.40;;;;;;;7.66;62.64;100525.29;105126;1274;73229;-70
2022/01/10 09:00:24;;;;;;;85.10;42.00;;;;;;;8.56;57.00;100526.84;105343;1271;68571;-71
2022/01/10 09:03:13;;;;;;;98.20;45.00;;;;;;;9.28;55.90;100528.73;105166;1273;72050;-70
2022/01/10 09:06:14;;;;;;;89.60;41.70;;;;;;;9.83;51.82;100529.69;105169;1274;59591;-70
2022/01/10 09:09:27;;;;;;;75.90;40.90;;;;;;;10.36;49.28;100535.72;105018;1271;60860;-70
2022/01/10 09:12:38;;;;;;;75.20;39.50;;;;;;;10.81;47.12;100544.30;105150;1271;73771;-70
2022/01/10 09:15:29;;;;;;;74.40;40.00;;;;;;;11.07;45.80;100541.20;105268;1271;68014;-70
2022/01/10 09:18:20;;;;;;;72.40;39.60;;;;;;;11.33;44.10;100547.16;105297;1272;70716;-70
2022/01/10 09:21:51;;;;;;;76.90;39.70;;;;;;;11.55;42.26;100554.44;105475;1271;59751;-70
2022/01/10 09:25:17;;;;;;;64.40;36.10;;;;;;;11.84;41.05;100557.60;105460;1271;60992;-71
2022/01/10 09:28:23;;;;;;;60.00;34.90;;;;;;;12.31;40.55;100559.38;105494;1271;73475;-71
2022/01/10 09:31:23;;;;;;;57.20;33.10;;;;;;;12.69;39.69;100565.35;105183;1274;65668;-71
2022/01/10 09:34:19;;;;;;;56.50;33.90;;;;;;;12.97;38.61;100564.20;105336;1274;70784;-71
2022/01/10 09:37:15;;;;;;;45.90;30.50;;;;;;;13.26;37.68;100569.92;105246;1271;59676;-70
2022/01/10 09:40:14;;;;;;;48.00;30.20;;;;;;;13.54;36.87;100573.98;105282;1271;60556;-70
2022/01/10 09:48:52;;;;;;;37.00;24.40;;;;;;;14.28;34.96;100584.52;105203;1271;66877;-70
2022/01/10 09:56:57;;;;;;;33.60;21.80;;;;;;;15.09;33.43;100595.46;104234;1284;60041;-71
2022/01/10 10:00:43;;;;;;;;;;;;;;;;;;;;;
2022/01/10 10:04:41;;;;;;;27.80;17.80;;;;;;;15.66;31.77;100613.48;103618;1293;73713;-71
2022/01/10 10:13:08;;;;;;;26.50;17.40;;;;;;;16.07;30.35;100622.44;103697;1290;72896;-71
2022/01/10 10:16:26;;;;;;;22.40;15.10;;;;;;;16.12;30.12;100624.20;103967;1290;59886;-71
2022/01/10 10:23:36;;;;;;;19.50;12.60;;;;;;;16.32;28.98;100630.73;104189;1289;73499;-72
2022/01/10 10:27:29;;;;;;;18.10;12.30;;;;;;;16.33;28.96;100638.88;104220;1287;68338;-73
2022/01/10 10:31:13;;;;;;;20.30;12.70;;;;;;;15.95;29.45;100646.45;103604;1288;73050;-71
2022/01/10 10:34:12;;;;;;;21.20;12.70;;;;;;;15.89;29.85;100657.20;103851;1291;59725;-71
2022/01/10 10:37:15;;;;;;;19.90;12.80;;;;;;;15.75;29.91;100660.19;104039;1288;60537;-71
2022/01/10 10:40:14;;;;;;;19.50;12.70;;;;;;;15.80;29.72;100661.60;104297;1279;74839;-71
2022/01/10 10:43:10;;;;;;;19.60;11.90;;;;;;;15.82;29.27;100667.34;104992;1279;68040;-72
2022/01/10 10:46:28;;;;;;;17.00;11.10;;;;;;;15.94;29.44;100672.14;105070;1279;71972;-71
2022/01/10 10:49:35;;;;;;;16.90;11.30;;;;;;;16.28;29.00;100679.80;104908;1280;59686;-71
2022/01/10 10:52:50;;;;;;;18.40;10.20;;;;;;;16.16;29.05;100673.51;104800;1279;60410;-72
2022/01/10 10:57:06;;;;;;;17.90;11.20;;;;;;;16.26;28.33;100675.71;104423;1281;73244;-71
2022/01/10 11:04:16;;;;;;;16.70;9.70;;;;;;;15.70;27.76;100696.77;104921;1280;73334;-72
2022/01/10 11:07:36;;;;;;;16.20;9.10;;;;;;;15.99;28.20;100699.08;104678;1280;59950;-71
2022/01/10 11:10:47;;;;;;;16.80;9.20;;;;;;;16.18;26.85;100700.41;104997;1280;59671;-70
2022/01/10 11:18:15;;;;;;;14.90;8.80;;;;;;;15.77;27.09;100714.80;105086;1280;68096;-71
2022/01/10 11:22:03;;;;;;;13.90;8.60;;;;;;;15.45;27.05;100714.42;104471;1280;73113;-71
2022/01/10 11:25:20;;;;;;;15.10;8.20;;;;;;;15.10;27.72;100719.38;104498;1280;59980;-71
2022/01/10 11:28:25;;;;;;;15.50;9.10;;;;;;;14.93;28.08;100726.41;104957;1280;60576;-70
2022/01/10 11:31:24;;;;;;;17.10;9.70;;;;;;;14.67;28.44;100728.73;104531;1279;73408;-71
2022/01/10 11:34:54;;;;;;;15.50;9.20;;;;;;;14.57;28.48;100732.25;104603;1280;68027;-70
2022/01/10 11:43:51;;;;;;;15.40;9.10;;;;;;;13.73;29.54;100746.23;105315;1271;59716;-71
2022/01/10 12:00:13;;;;;;;;;;;;;;;;;;;;;
2022/01/10 12:11:01;;;;;;;24.80;11.20;;;;;;;10.48;35.56;100796.34;103483;1290;59739;-70
2022/01/10 12:21:11;;;;;;;29.00;13.40;;;;;;;9.94;37.13;100809.39;102844;1297;74662;-70
2022/01/10 12:25:45;;;;;;;25.40;13.00;;;;;;;9.58;37.72;100814.42;102996;1297;67954;-69
2022/01/10 12:43:45;;;;;;;;;;;;;;;;;;;;;
2022/01/10 12:48:43;;;;;;;16.60;8.90;;;;;;;7.52;41.39;100852.44;102495;1303;69507;-69
2022/01/10 12:56:21;;;;;;;19.30;10.30;;;;;;;6.08;44.35;100873.23;102820;1297;59636;-69
2022/01/10 13:00:22;;;;;;;20.70;10.00;;;;;;;5.19;46.16;100883.97;102912;1294;59761;-70
2022/01/10 13:13:48;;;;;;;17.50;7.90;;;;;;;2.49;53.90;100921.27;104837;1279;70802;-69
2022/01/10 13:17:08;;;;;;;17.80;8.70;;;;;;;2.12;55.24;100932.70;104800;1274;59681;-70
2022/01/10 13:21:54;;;;;;;18.20;8.50;;;;;;;1.65;57.22;100944.31;105217;1271;59653;-69
2022/01/10 13:24:53;;;;;;;16.80;7.10;;;;;;;1.32;58.62;100952.00;105338;1271;72152;-70
2022/01/10 13:27:52;;;;;;;17.60;7.90;;;;;;;1.06;59.52;100959.27;105099;1271;1003462;-70
2022/01/10 13:30:56;;;;;;;17.90;8.10;;;;;;;0.89;60.24;100964.39;104582;1271;1002923;-69
2022/01/10 13:33:57;;;;;;;19.90;8.00;;;;;;;0.72;61.05;100975.23;105407;1271;59745;-68
2022/01/10 13:37:04;;;;;;;23.90;10.60;;;;;;;0.55;61.85;100977.21;105296;1271;60605;-70
2022/01/10 13:40:17;;;;;;;24.20;10.70;;;;;;;0.44;62.34;100983.54;104834;1271;1003928;-69
2022/01/10 13:44:07;;;;;;;20.20;9.10;;;;;;;0.30;63.13;100990.95;105594;1273;66995;-70
2022/01/10 13:47:28;;;;;;;18.40;8.20;;;;;;;0.16;64.29;100993.88;105157;1271;74357;-69
2022/01/10 13:51:41;;;;;;;19.50;8.20;;;;;;;0.01;64.60;101005.34;105279;1272;59652;-68
2022/01/10 13:55:43;;;;;;;21.30;9.40;;;;;;;-0.16;65.67;101015.77;105303;1274;59638;-69
2022/01/10 13:58:56;;;;;;;23.90;9.50;;;;;;;-0.28;66.09;101021.73;105287;1271;73084;-69
2022/01/10 14:03:56;;;;;;;;;;;;;;;;;;;;;
2022/01/10 14:08:41;;;;;;;28.30;11.90;;;;;;;-0.57;67.42;101030.42;105251;1271;74199;-69
2022/01/10 14:27:11;;;;;;;25.70;11.80;;;;;;;-1.21;69.90;101061.31;104256;1276;1002944;-70
2022/01/10 14:39:42;;;;;;;25.80;12.00;;;;;;;-1.72;71.71;101090.98;103473;1282;1003758;-68
2022/01/10 14:43:32;;;;;;;27.50;11.60;;;;;;;-1.85;72.76;101093.73;104021;1283;1002820;-69
2022/01/10 14:48:11;;;;;;;27.20;12.70;;;;;;;-2.06;73.31;101101.92;103119;1288;1003577;-68
2022/01/10 14:52:45;;;;;;;26.40;13.30;;;;;;;-2.27;74.05;101101.24;103840;1288;71714;-67
2022/01/10 14:56:22;;;;;;;35.30;15.20;;;;;;;-2.41;75.03;101112.12;103978;1289;59699;-68
2022/01/10 14:59:16;;;;;;;42.10;17.80;;;;;;;-2.51;75.44;101119.83;103834;1288;59854;-68
2022/01/10 15:06:46;;;;;;;52.30;21.50;;;;;;;-2.68;76.52;101134.20;104295;1284;67288;-68
2022/01/10 15:09:38;;;;;;;56.10;24.60;;;;;;;-2.71;76.98;101138.55;104160;1284;72988;-68
2022/01/10 15:12:48;;;;;;;60.60;26.40;;;;;;;-2.76;77.53;101144.66;104490;1278;59777;-68
2022/01/10 15:16:28;;;;;;;55.20;25.00;;;;;;;-2.78;77.89;101146.42;104529;1278;61108;-68
2022/01/10 15:19:26;;;;;;;66.60;27.80;;;;;;;-2.82;77.99;101153.72;104523;1284;72153;-69
2022/01/10 15:23:13;;;;;;;73.00;29.10;;;;;;;-2.91;78.31;101163.50;104311;1284;67145;-68
2022/01/10 15:46:40;;;;;;;76.50;26.50;;;;;;;-3.60;80.66;101201.89;102485;1294;1003000;-68
2022/01/10 15:49:42;;;;;;;76.90;27.70;;;;;;;-3.67;81.31;101207.45;103462;1289;71525;-67
2022/01/10 15:54:53;;;;;;;;;;;;;;;;;;;;;
2022/01/10 15:58:22;;;;;;;63.60;23.30;;;;;;;-3.78;81.92;101228.61;104261;1287;59732;-67
2022/01/10 16:05:48;;;;;;;62.50;24.90;;;;;;;-3.83;82.87;101237.63;104405;1284;66980;-67
2022/01/10 16:08:44;;;;;;;60.10;26.70;;;;;;;-3.87;82.77;101241.96;104759;1284;71531;-68
2022/01/10 16:21:49;;;;;;;125.10;52.90;;;;;;;-4.03;83.73;101259.46;104810;1281;73427;-69
2022/01/10 16:25:29;;;;;;;;;;;;;;;;;;;;;
2022/01/10 16:29:26;;;;;;;137.70;57.40;;;;;;;-4.13;84.01;101270.53;104619;1277;1003446;-68
2022/01/10 16:32:23;;;;;;;114.90;48.10;;;;;;;-4.12;84.21;101274.35;104380;1277;1002941;-68
2022/01/10 16:36:36;;;;;;;115.20;46.80;;;;;;;-4.11;84.73;101276.77;105070;1276;59631;-68
2022/01/10 16:44:35;;;;;;;;;;;;;;;;;;;;;
2022/01/10 16:48:02;;;;;;;;;;;;;;;;;;;;;
2022/01/10 16:52:13;;;;;;;115.40;46.90;;;;;;;-4.24;84.83;101299.10;104899;1280;59795;-67
2022/01/10 16:56:38;;;;;;;;;;;;;;;;;;;;;
2022/01/10 16:59:58;;;;;;;99.70;40.10;;;;;;;-4.39;85.52;101317.78;104202;1285;73465;-68
2022/01/10 17:03:04;;;;;;;108.00;44.20;;;;;;;-4.46;85.71;101321.90;104267;1284;67494;-67
2022/01/10 17:06:34;;;;;;;117.20;47.40;;;;;;;-4.50;85.70;101325.52;104435;1284;72855;-68
2022/01/10 17:16:54;;;;;;;108.40;38.20;;;;;;;-4.54;86.46;101330.36;104920;1281;73921;-67
2022/01/10 17:20:45;;;;;;;104.40;37.80;;;;;;;-4.55;86.59;101332.95;103976;1280;1003418;-67
2022/01/10 17:24:26;;;;;;;107.00;36.70;;;;;;;-4.57;86.86;101336.92;103233;1286;1002954;-68
2022/01/10 17:27:27;;;;;;;101.40;37.60;;;;;;;-4.62;86.88;101338.11;104507;1285;59607;-68
2022/01/10 17:30:56;;;;;;;98.30;35.20;;;;;;;-4.65;87.01;101340.00;104846;1278;60600;-68
2022/01/10 17:34:08;;;;;;;118.00;43.40;;;;;;;-4.69;87.15;101341.55;104017;1278;1003610;-68
2022/01/10 17:37:40;;;;;;;122.10;47.40;;;;;;;-4.69;87.29;101345.52;105192;1277;66175;-68
2022/01/10 17:41:21;;;;;;;110.50;40.50;;;;;;;-4.66;87.62;101344.86;103515;1278;1004155;-68
2022/01/10 17:44:54;;;;;;;118.40;41.30;;;;;;;-4.63;87.84;101347.81;105004;1280;59861;-68
2022/01/10 17:47:57;;;;;;;125.30;43.80;;;;;;;-4.60;87.85;101349.73;104029;1278;1003491;-67
2022/01/10 17:51:24;;;;;;;99.60;41.40;;;;;;;-4.62;87.89;101353.70;105119;1278;72025;-67
2022/01/10 17:55:40;;;;;;;;;;;;;;;;;;;;;
2022/01/10 17:58:47;;;;;;;122.20;49.30;;;;;;;-4.63;88.05;101370.15;104256;1284;73172;-67
2022/01/10 18:01:35;;;;;;;91.80;36.30;;;;;;;-4.66;88.20;101373.95;103686;1280;1003098;-67
2022/01/10 18:04:42;;;;;;;;;;;;;;;;;;;;;
2022/01/10 18:07:33;;;;;;;126.20;46.00;;;;;;;-4.76;88.38;101383.92;103826;1281;1003283;-68
2022/01/10 18:10:27;;;;;;;122.00;47.40;;;;;;;-4.78;88.44;101390.86;104544;1281;68004;-68
2022/01/10 18:13:49;;;;;;;106.60;41.60;;;;;;;-4.77;88.71;101394.83;104725;1280;73315;-68
2022/01/10 18:16:45;;;;;;;91.90;35.80;;;;;;;-4.75;89.08;101404.20;104117;1288;59802;-68
2022/01/10 18:19:34;;;;;;;108.50;42.70;;;;;;;-4.72;88.83;101408.90;103760;1287;340362;-67
2022/01/10 18:22:26;;;;;;;100.00;39.40;;;;;;;-4.71;88.97;101412.20;104072;1287;73554;-67
2022/01/10 18:25:37;;;;;;;104.40;42.70;;;;;;;-4.72;88.65;101415.31;103889;1287;67166;-68
2022/01/10 18:28:26;;;;;;;88.70;36.50;;;;;;;-4.75;88.48;101416.84;103640;1291;73471;-68
2022/01/10 18:31:15;;;;;;;82.60;35.90;;;;;;;-4.79;88.36;101420.27;103470;1292;59631;-68
2022/01/10 18:34:06;;;;;;;74.70;32.80;;;;;;;-4.85;88.22;101420.77;104040;1287;60666;-69
2022/01/10 18:37:57;;;;;;;94.40;36.20;;;;;;;-4.92;88.14;101423.83;103752;1288;71354;-68
2022/01/10 18:40:50;;;;;;;90.70;38.30;;;;;;;-4.96;88.41;101430.55;102833;1290;1002924;-68
2022/01/10 18:43:44;;;;;;;77.60;35.00;;;;;;;-4.97;88.58;101434.19;103684;1288;71974;-68
2022/01/10 18:46:34;;;;;;;106.10;39.50;;;;;;;-4.94;88.82;101439.90;103809;1288;59815;-67
2022/01/10 18:49:41;;;;;;;115.20;42.50;;;;;;;-4.93;88.95;101443.73;103791;1287;60723;-67
2022/01/10 18:52:37;;;;;;;105.90;42.10;;;;;;;-4.89;89.28;101448.25;103805;1287;72179;-68
2022/01/10 18:55:28;;;;;;;142.90;49.50;;;;;;;-4.91;88.36;101449.46;104612;1280;68431;-68
2022/01/10 18:58:25;;;;;;;138.00;45.70;;;;;;;-4.95;88.37;101454.27;104733;1281;71937;-68
2022/01/10 19:01:19;;;;;;;109.60;40.20;;;;;;;-5.00;88.25;101461.15;103739;1281;1003086;-67
2022/01/10 19:04:20;;;;;;;122.10;40.90;;;;;;;-5.08;88.04;101464.55;104385;1281;60760;-67
2022/01/10 19:07:13;;;;;;;96.20;35.10;;;;;;;-5.14;88.43;101470.20;104031;1274;1002994;-68
2022/01/10 19:10:07;;;;;;;86.80;35.50;;;;;;;-5.20;88.43;101473.27;104680;1275;68491;-68
2022/01/10 19:13:03;;;;;;;71.10;32.00;;;;;;;-5.22;89.11;101483.44;105111;1272;72945;-67
2022/01/10 19:15:54;;;;;;;60.30;27.00;;;;;;;-5.21;90.05;101488.48;105211;1274;59726;-68
2022/01/10 19:18:42;;;;;;;50.90;22.60;;;;;;;-5.18;90.17;101490.23;105309;1274;60791;-68
2022/01/10 19:21:33;;;;;;;47.00;20.80;;;;;;;-5.14;90.94;101494.27;105017;1274;73951;-68
2022/01/10 19:24:21;;;;;;;39.30;19.50;;;;;;;-5.08;91.18;101494.48;105267;1274;67298;-68
2022/01/10 19:27:09;;;;;;;44.60;20.00;;;;;;;-5.05;91.13;101491.23;104858;1274;73249;-68
2022/01/10 19:29:59;;;;;;;45.60;19.50;;;;;;;-5.01;91.51;101485.89;105096;1273;59775;-68
2022/01/10 19:32:49;;;;;;;47.30;20.10;;;;;;;-4.99;91.55;101497.17;105110;1274;59592;-67
2022/01/10 19:35:41;;;;;;;48.10;20.10;;;;;;;-4.98;91.56;101495.79;104163;1271;1003442;-68
2022/01/10 19:38:42;;;;;;;58.40;25.70;;;;;;;-4.97;91.64;101507.57;104840;1274;66951;-68
2022/01/10 19:41:30;;;;;;;81.30;34.60;;;;;;;-4.96;91.21;101510.70;105054;1274;72835;-69
2022/01/10 19:44:19;;;;;;;66.10;30.30;;;;;;;-4.94;91.17;101507.77;104771;1274;59719;-68
2022/01/10 19:47:25;;;;;;;75.60;31.60;;;;;;;-4.91;91.17;101514.90;105206;1271;60508;-68
2022/01/10 19:50:28;;;;;;;71.90;29.70;;;;;;;-4.88;91.25;101518.05;105288;1273;73392;-69
2022/01/10 19:53:31;;;;;;;72.10;28.00;;;;;;;-4.86;91.07;101513.23;105374;1274;66159;-68